Time;durP1;ratioP1;P1;durP2;ratioP2;P2;SDS_P1;SDS_P2;PMS_P1;PMS_P2;Temp;Humidity;BMP_temperature;BMP_pressure;BME280_temperature;BME280_humidity;BME280_pressure;Samples;Min_cycle;Max_cycle;Signal;HPM_P1;HPM_P2
2023/10/26 00:00:07;;;;;;;5.40;2.38;;;;;;;;;;4966918;28;92534;-81
2023/10/26 00:02:37;;;;;;;5.55;2.28;;;;;;;;;;4969961;28;92694;-81
2023/10/26 00:05:04;;;;;;;5.15;2.20;;;;;;;;;;4970279;28;92644;-82
2023/10/26 00:07:31;;;;;;;5.57;2.33;;;;;;;;;;4969577;28;92686;-81
2023/10/26 00:09:57;;;;;;;5.55;2.42;;;;;;;;;;4967911;28;93136;-81
2023/10/26 00:12:24;;;;;;;5.30;2.25;;;;;;;;;;4964812;28;96948;-81
2023/10/26 00:14:50;;;;;;;5.18;2.42;;;;;;;;;;4969347;28;95033;-81
2023/10/26 00:17:17;;;;;;;5.80;2.42;;;;;;;;;;4968209;28;93407;-81
2023/10/26 00:19:44;;;;;;;5.88;2.50;;;;;;;;;;4983653;28;92616;-81
2023/10/26 00:22:10;;;;;;;6.15;2.65;;;;;;;;;;4968372;28;92776;-80
2023/10/26 00:24:37;;;;;;;6.25;2.50;;;;;;;;;;4960888;28;96165;-80
2023/10/26 00:27:04;;;;;;;6.65;2.50;;;;;;;;;;4968601;28;92665;-81
2023/10/26 00:29:30;;;;;;;5.22;2.35;;;;;;;;;;4967072;28;94895;-81
2023/10/26 00:31:57;;;;;;;4.60;2.35;;;;;;;;;;4966986;28;92659;-82
2023/10/26 00:34:24;;;;;;;7.65;2.25;;;;;;;;;;4968040;28;93016;-81
2023/10/26 00:36:50;;;;;;;5.80;2.45;;;;;;;;;;4966789;28;95377;-81
2023/10/26 00:39:17;;;;;;;6.38;2.47;;;;;;;;;;4968758;28;92541;-81
2023/10/26 00:41:43;;;;;;;5.47;2.40;;;;;;;;;;4968206;28;93439;-81
2023/10/26 00:44:10;;;;;;;5.40;2.20;;;;;;;;;;4967604;28;92995;-81
2023/10/26 00:46:36;;;;;;;5.85;2.50;;;;;;;;;;4971635;28;92480;-81
2023/10/26 00:49:03;;;;;;;5.68;2.50;;;;;;;;;;4968495;28;93671;-81
2023/10/26 00:51:30;;;;;;;6.07;2.30;;;;;;;;;;4968255;28;92468;-81
2023/10/26 00:53:56;;;;;;;6.90;2.15;;;;;;;;;;4970282;28;95440;-81
2023/10/26 00:56:25;;;;;;;5.38;2.60;;;;;;;;;;4970835;28;95860;-81
2023/10/26 00:58:52;;;;;;;6.20;2.60;;;;;;;;;;4972219;28;92423;-81
2023/10/26 01:01:18;;;;;;;5.28;2.33;;;;;;;;;;4970332;28;94772;-81
2023/10/26 01:03:46;;;;;;;6.60;2.47;;;;;;;;;;4971823;28;93127;-81
2023/10/26 01:06:12;;;;;;;5.85;2.45;;;;;;;;;;4971554;28;93391;-81
2023/10/26 01:08:39;;;;;;;6.10;2.70;;;;;;;;;;4972978;28;93297;-81
2023/10/26 01:11:06;;;;;;;6.53;2.35;;;;;;;;;;4970027;28;92513;-81
2023/10/26 01:13:33;;;;;;;6.68;2.83;;;;;;;;;;4971547;28;92473;-82
2023/10/26 01:16:02;;;;;;;5.50;2.53;;;;;;;;;;4971441;28;93048;-81
2023/10/26 01:18:28;;;;;;;7.45;2.78;;;;;;;;;;4969880;28;91691;-81
2023/10/26 01:20:55;;;;;;;5.82;2.40;;;;;;;;;;4984081;27;92487;-81
2023/10/26 01:23:21;;;;;;;8.30;2.67;;;;;;;;;;4971196;28;93035;-80
2023/10/26 01:25:51;;;;;;;6.70;2.63;;;;;;;;;;4954128;28;95144;-80
2023/10/26 01:28:18;;;;;;;4.90;2.33;;;;;;;;;;4978461;28;95560;-80
2023/10/26 01:30:45;;;;;;;6.85;2.40;;;;;;;;;;4972519;28;93164;-81
2023/10/26 01:33:11;;;;;;;8.10;2.50;;;;;;;;;;4971261;28;92808;-80
2023/10/26 01:35:40;;;;;;;7.03;2.50;;;;;;;;;;4970900;28;93167;-80
2023/10/26 01:38:07;;;;;;;6.60;2.67;;;;;;;;;;4970694;28;93017;-79
2023/10/26 01:40:33;;;;;;;5.80;2.40;;;;;;;;;;4977770;28;92856;-80
2023/10/26 01:43:00;;;;;;;5.25;2.50;;;;;;;;;;4971055;28;93584;-80
2023/10/26 01:45:26;;;;;;;4.53;2.20;;;;;;;;;;4971173;28;92452;-80
2023/10/26 01:47:54;;;;;;;5.78;2.65;;;;;;;;;;4970629;28;92704;-80
2023/10/26 01:50:21;;;;;;;5.20;2.50;;;;;;;;;;4968969;28;95427;-80
2023/10/26 01:52:47;;;;;;;5.00;2.30;;;;;;;;;;4973892;28;92379;-80
2023/10/26 01:55:14;;;;;;;5.25;2.15;;;;;;;;;;4970641;28;95936;-81
2023/10/26 01:57:40;;;;;;;5.20;2.35;;;;;;;;;;4968991;28;92858;-80
2023/10/26 02:00:08;;;;;;;7.53;2.50;;;;;;;;;;4972649;28;93427;-80
2023/10/26 02:02:39;;;;;;;7.15;2.85;;;;;;;;;;4970013;28;95940;-80
2023/10/26 02:05:05;;;;;;;5.97;2.55;;;;;;;;;;4985865;28;92585;-80
2023/10/26 02:07:33;;;;;;;6.75;2.35;;;;;;;;;;4971111;28;92479;-79
2023/10/26 02:10:00;;;;;;;6.43;2.60;;;;;;;;;;4969837;28;93084;-81
2023/10/26 02:12:26;;;;;;;5.47;2.20;;;;;;;;;;4972967;28;92373;-80
2023/10/26 02:14:53;;;;;;;5.65;2.58;;;;;;;;;;4968711;28;96119;-81
2023/10/26 02:17:19;;;;;;;4.68;2.42;;;;;;;;;;4969851;28;92938;-80
2023/10/26 02:19:46;;;;;;;5.47;2.55;;;;;;;;;;4969135;28;96736;-81
2023/10/26 02:22:14;;;;;;;4.95;2.30;;;;;;;;;;4968750;28;93117;-80
2023/10/26 02:24:41;;;;;;;6.07;2.30;;;;;;;;;;4970498;28;93832;-80
2023/10/26 02:27:08;;;;;;;5.97;2.42;;;;;;;;;;4969811;28;92505;-81
2023/10/26 02:29:35;;;;;;;4.82;2.28;;;;;;;;;;4968222;28;96495;-81
2023/10/26 02:32:02;;;;;;;6.07;2.30;;;;;;;;;;4970706;28;91809;-81
2023/10/26 02:34:28;;;;;;;6.22;2.10;;;;;;;;;;4971708;28;94563;-82
2023/10/26 02:36:57;;;;;;;5.18;2.28;;;;;;;;;;4969786;28;100293;-82
2023/10/26 02:39:24;;;;;;;6.00;2.22;;;;;;;;;;4966347;28;94910;-81
2023/10/26 02:41:51;;;;;;;4.72;2.08;;;;;;;;;;4970132;28;93378;-81
2023/10/26 02:44:17;;;;;;;7.03;2.30;;;;;;;;;;4969209;28;92444;-81
2023/10/26 02:46:44;;;;;;;4.72;2.25;;;;;;;;;;4969637;28;92825;-82
2023/10/26 02:49:10;;;;;;;5.63;2.20;;;;;;;;;;4967607;28;93111;-81
2023/10/26 02:51:37;;;;;;;5.65;2.53;;;;;;;;;;4967318;28;92546;-81
2023/10/26 02:54:03;;;;;;;6.55;2.72;;;;;;;;;;4969707;28;92723;-81
2023/10/26 02:56:30;;;;;;;5.95;2.40;;;;;;;;;;4972204;28;92179;-81
2023/10/26 02:58:56;;;;;;;5.85;2.20;;;;;;;;;;4967128;28;92886;-80
2023/10/26 03:01:23;;;;;;;5.45;2.22;;;;;;;;;;4968595;28;93118;-80
2023/10/26 03:03:49;;;;;;;5.30;2.40;;;;;;;;;;4965530;28;95258;-80
2023/10/26 03:06:16;;;;;;;5.65;2.50;;;;;;;;;;4949985;28;98049;-81
2023/10/26 03:08:43;;;;;;;5.65;2.40;;;;;;;;;;4969902;28;93140;-81
2023/10/26 03:11:09;;;;;;;5.50;2.38;;;;;;;;;;4967278;28;92922;-81
2023/10/26 03:13:36;;;;;;;4.80;2.47;;;;;;;;;;4967854;28;93959;-80
2023/10/26 03:16:02;;;;;;;6.95;2.88;;;;;;;;;;4968385;28;93411;-81
2023/10/26 03:18:30;;;;;;;6.75;2.67;;;;;;;;;;4971429;28;93602;-80
2023/10/26 03:20:57;;;;;;;8.07;2.42;;;;;;;;;;4970318;28;93017;-81
2023/10/26 03:23:24;;;;;;;6.50;2.53;;;;;;;;;;4971189;28;92525;-81
2023/10/26 03:25:50;;;;;;;6.28;2.65;;;;;;;;;;4969678;28;92509;-81
2023/10/26 03:28:17;;;;;;;5.82;2.42;;;;;;;;;;4966650;28;95731;-80
2023/10/26 03:30:43;;;;;;;7.15;2.83;;;;;;;;;;4959080;28;92608;-80
2023/10/26 03:33:10;;;;;;;6.05;2.40;;;;;;;;;;4968970;28;92903;-81
2023/10/26 03:35:36;;;;;;;7.20;3.08;;;;;;;;;;4967280;28;94343;-80
2023/10/26 03:38:03;;;;;;;6.15;2.70;;;;;;;;;;4969070;28;92791;-81
2023/10/26 03:40:31;;;;;;;7.65;3.13;;;;;;;;;;4974036;28;97119;-80
2023/10/26 03:42:58;;;;;;;6.22;2.88;;;;;;;;;;4969509;28;92981;-81
2023/10/26 03:45:26;;;;;;;8.05;3.17;;;;;;;;;;4967667;28;96233;-81
2023/10/26 03:47:53;;;;;;;6.88;2.90;;;;;;;;;;4968603;28;92938;-82
2023/10/26 03:50:20;;;;;;;5.90;2.72;;;;;;;;;;4966655;28;99564;-81
2023/10/26 03:52:47;;;;;;;6.38;2.55;;;;;;;;;;4968033;28;95369;-81
2023/10/26 03:55:13;;;;;;;6.07;2.78;;;;;;;;;;4969017;28;93601;-81
2023/10/26 03:57:40;;;;;;;5.53;2.60;;;;;;;;;;4967746;28;92892;-81
2023/10/26 04:00:09;;;;;;;5.40;2.47;;;;;;;;;;4970082;28;94907;-80
2023/10/26 04:02:38;;;;;;;6.28;2.65;;;;;;;;;;4968813;28;92394;-81
2023/10/26 04:05:06;;;;;;;7.32;2.70;;;;;;;;;;4969231;28;92788;-81
2023/10/26 04:07:33;;;;;;;6.10;2.90;;;;;;;;;;4966683;28;93395;-81
2023/10/26 04:10:01;;;;;;;5.70;2.42;;;;;;;;;;4975259;28;91854;-81
2023/10/26 04:12:27;;;;;;;;;;;;;;;;;;4970924;28;92492;-81
2023/10/26 04:14:54;;;;;;;5.57;2.63;;;;;;;;;;4975690;28;103940;-79
2023/10/26 04:17:21;;;;;;;7.85;2.88;;;;;;;;;;4971354;28;95294;-83
2023/10/26 04:19:47;;;;;;;6.53;2.70;;;;;;;;;;4976885;28;95374;-80
2023/10/26 04:22:14;;;;;;;5.63;2.63;;;;;;;;;;4979552;28;94024;-83
2023/10/26 04:24:40;;;;;;;6.38;2.92;;;;;;;;;;4988934;28;92475;-79
2023/10/26 04:27:07;;;;;;;5.43;2.50;;;;;;;;;;4968566;28;96179;-79
2023/10/26 04:29:34;;;;;;;6.40;2.63;;;;;;;;;;4963230;28;92756;-80
2023/10/26 04:32:00;;;;;;;6.07;2.67;;;;;;;;;;4970708;28;92672;-82
2023/10/26 04:34:27;;;;;;;18.25;3.17;;;;;;;;;;4971855;28;92679;-82
2023/10/26 04:36:56;;;;;;;5.68;2.90;;;;;;;;;;4985832;28;92501;-82
2023/10/26 04:39:22;;;;;;;5.88;2.65;;;;;;;;;;4970146;28;92835;-80
2023/10/26 04:41:49;;;;;;;5.85;2.40;;;;;;;;;;4968340;28;95427;-82
2023/10/26 04:44:17;;;;;;;5.10;2.38;;;;;;;;;;4973029;28;92682;-80
2023/10/26 04:46:44;;;;;;;5.90;2.50;;;;;;;;;;4968547;28;93530;-80
2023/10/26 04:49:10;;;;;;;5.15;2.40;;;;;;;;;;4968979;28;92463;-82
2023/10/26 04:51:37;;;;;;;4.60;2.30;;;;;;;;;;4968581;28;92792;-80
2023/10/26 04:54:04;;;;;;;5.88;2.25;;;;;;;;;;4967756;28;94055;-80
2023/10/26 04:56:30;;;;;;;5.40;2.03;;;;;;;;;;4967666;28;92648;-82
2023/10/26 04:58:57;;;;;;;3.67;1.63;;;;;;;;;;4967922;28;92959;-81
2023/10/26 05:01:23;;;;;;;3.63;1.73;;;;;;;;;;4968084;28;93479;-82
2023/10/26 05:03:53;;;;;;;3.25;1.77;;;;;;;;;;4967358;28;92461;-80
2023/10/26 05:06:19;;;;;;;3.50;1.73;;;;;;;;;;4968396;28;94968;-80
2023/10/26 05:08:46;;;;;;;2.80;1.55;;;;;;;;;;4974202;28;92469;-80
2023/10/26 05:11:14;;;;;;;4.18;1.83;;;;;;;;;;4960148;28;92926;-80
2023/10/26 05:13:41;;;;;;;3.50;1.80;;;;;;;;;;4967760;28;93500;-81
2023/10/26 05:16:07;;;;;;;4.30;2.00;;;;;;;;;;4967845;28;92453;-80
2023/10/26 05:18:34;;;;;;;3.78;2.00;;;;;;;;;;4968118;28;93549;-80
2023/10/26 05:21:01;;;;;;;5.13;1.90;;;;;;;;;;4969397;28;92885;-80
2023/10/26 05:23:27;;;;;;;3.63;2.05;;;;;;;;;;4968189;28;91704;-80
2023/10/26 05:25:54;;;;;;;4.63;2.03;;;;;;;;;;4968422;27;92609;-82
2023/10/26 05:28:20;;;;;;;4.18;2.15;;;;;;;;;;4969639;28;93006;-79
2023/10/26 05:30:47;;;;;;;4.95;2.15;;;;;;;;;;4961273;28;94848;-80
2023/10/26 05:33:15;;;;;;;5.47;2.22;;;;;;;;;;4967778;28;93119;-80
2023/10/26 05:35:43;;;;;;;5.45;2.10;;;;;;;;;;4966872;28;92990;-83
2023/10/26 05:38:10;;;;;;;5.03;2.10;;;;;;;;;;4966934;28;92877;-80
2023/10/26 05:40:37;;;;;;;9.32;2.10;;;;;;;;;;4970255;28;93131;-81
2023/10/26 05:43:03;;;;;;;4.30;2.20;;;;;;;;;;4968188;28;92919;-81
2023/10/26 05:45:36;;;;;;;4.72;2.17;;;;;;;;;;4971231;28;92738;-81
2023/10/26 05:48:05;;;;;;;4.03;2.10;;;;;;;;;;4970881;28;92303;-81
2023/10/26 05:50:32;;;;;;;4.53;2.03;;;;;;;;;;4974141;28;92565;-81
2023/10/26 05:52:58;;;;;;;4.35;2.13;;;;;;;;;;4970661;28;94064;-81
2023/10/26 05:55:25;;;;;;;6.07;2.25;;;;;;;;;;4967611;28;102147;-81
2023/10/26 05:57:52;;;;;;;4.63;2.00;;;;;;;;;;4971151;28;95319;-81
2023/10/26 06:00:18;;;;;;;5.55;2.15;;;;;;;;;;4970170;28;93697;-81
2023/10/26 06:02:45;;;;;;;4.38;1.75;;;;;;;;;;4985515;28;92539;-81
2023/10/26 06:05:11;;;;;;;4.55;2.03;;;;;;;;;;4986666;28;92953;-80
2023/10/26 06:07:38;;;;;;;4.70;2.00;;;;;;;;;;4970312;28;93168;-80
2023/10/26 06:10:05;;;;;;;4.43;2.10;;;;;;;;;;4979338;28;92670;-79
2023/10/26 06:12:32;;;;;;;6.72;2.20;;;;;;;;;;4971027;28;97342;-79
2023/10/26 06:14:59;;;;;;;4.97;1.92;;;;;;;;;;4972481;28;92880;-80
2023/10/26 06:17:25;;;;;;;3.85;1.80;;;;;;;;;;4973415;28;92845;-81
2023/10/26 06:19:52;;;;;;;3.85;1.73;;;;;;;;;;4972150;28;95542;-83
2023/10/26 06:22:18;;;;;;;3.13;1.63;;;;;;;;;;4976511;28;92721;-81
2023/10/26 06:24:45;;;;;;;9.88;2.42;;;;;;;;;;4983776;27;92960;-81
2023/10/26 06:27:12;;;;;;;12.18;2.90;;;;;;;;;;4976261;28;94178;-81
2023/10/26 06:29:39;;;;;;;9.65;2.85;;;;;;;;;;4964115;28;93039;-80
2023/10/26 06:32:06;;;;;;;10.40;3.13;;;;;;;;;;4972802;28;93987;-80
2023/10/26 06:34:32;;;;;;;11.90;2.90;;;;;;;;;;4964554;28;92482;-81
2023/10/26 06:36:59;;;;;;;18.70;3.05;;;;;;;;;;4968248;28;93130;-80
2023/10/26 06:39:26;;;;;;;13.70;3.40;;;;;;;;;;4968842;28;92893;-80
2023/10/26 06:41:52;;;;;;;13.88;3.10;;;;;;;;;;4967868;28;92861;-81
2023/10/26 06:44:21;;;;;;;10.98;2.78;;;;;;;;;;4956589;28;95334;-80
2023/10/26 06:46:48;;;;;;;10.52;3.10;;;;;;;;;;4967342;28;96212;-81
2023/10/26 06:49:14;;;;;;;13.70;3.15;;;;;;;;;;4969074;28;92632;-80
2023/10/26 06:51:55;;;;;;;11.98;3.25;;;;;;;;;;4968813;28;93705;-80
2023/10/26 06:54:22;;;;;;;6.82;2.70;;;;;;;;;;4974251;28;92881;-81
2023/10/26 06:56:49;;;;;;;10.45;2.60;;;;;;;;;;4978718;28;94176;-81
2023/10/26 06:59:15;;;;;;;9.88;2.40;;;;;;;;;;4969117;28;99511;-81
2023/10/26 07:01:42;;;;;;;10.25;2.50;;;;;;;;;;4970615;28;91762;-80
2023/10/26 07:04:28;;;;;;;9.93;2.50;;;;;;;;;;4968144;28;93980;-81
2023/10/26 07:06:56;;;;;;;9.40;2.50;;;;;;;;;;4969866;28;93943;-81
2023/10/26 07:09:23;;;;;;;12.13;2.60;;;;;;;;;;4968524;28;94862;-81
2023/10/26 07:11:51;;;;;;;8.43;2.42;;;;;;;;;;4971606;28;92408;-80
2023/10/26 07:14:17;;;;;;;8.02;2.42;;;;;;;;;;4967334;28;93389;-80
2023/10/26 07:16:44;;;;;;;8.95;2.25;;;;;;;;;;4972842;28;92453;-80
2023/10/26 07:19:10;;;;;;;7.38;2.13;;;;;;;;;;4969843;28;94269;-81
2023/10/26 07:21:37;;;;;;;8.20;2.00;;;;;;;;;;4969962;28;92589;-81
2023/10/26 07:24:04;;;;;;;9.05;2.08;;;;;;;;;;4969406;28;94403;-80
2023/10/26 07:26:32;;;;;;;9.57;2.55;;;;;;;;;;4969371;28;98593;-79
2023/10/26 07:28:59;;;;;;;7.15;1.95;;;;;;;;;;4968178;28;92658;-80
2023/10/26 07:31:25;;;;;;;7.13;2.30;;;;;;;;;;4969826;28;93592;-79
2023/10/26 07:33:52;;;;;;;6.55;2.00;;;;;;;;;;4967228;28;95810;-79
2023/10/26 07:36:19;;;;;;;5.97;1.90;;;;;;;;;;4968242;28;92499;-80
2023/10/26 07:38:46;;;;;;;6.53;2.08;;;;;;;;;;4972931;28;92919;-80
2023/10/26 07:41:32;;;;;;;6.65;2.15;;;;;;;;;;4969547;28;92835;-79
2023/10/26 07:44:19;;;;;;;4.47;1.73;;;;;;;;;;4968314;28;93322;-80
2023/10/26 07:46:45;;;;;;;8.68;2.08;;;;;;;;;;4969301;28;93519;-79
2023/10/26 07:49:12;;;;;;;8.65;1.98;;;;;;;;;;4968977;28;92554;-80
2023/10/26 07:51:38;;;;;;;6.30;1.98;;;;;;;;;;4969876;28;93384;-80
2023/10/26 07:54:05;;;;;;;5.38;1.73;;;;;;;;;;4967034;28;92665;-80
2023/10/26 07:56:38;;;;;;;6.57;1.83;;;;;;;;;;4968832;28;92462;-80
2023/10/26 07:59:04;;;;;;;4.57;1.70;;;;;;;;;;4965411;28;95233;-80
2023/10/26 08:01:31;;;;;;;5.55;1.90;;;;;;;;;;4970234;28;93162;-79
2023/10/26 08:03:58;;;;;;;4.97;1.67;;;;;;;;;;4968662;28;92785;-80
2023/10/26 08:06:24;;;;;;;5.47;1.70;;;;;;;;;;4967837;28;93906;-79
2023/10/26 08:08:54;;;;;;;5.07;1.60;;;;;;;;;;4968609;28;94015;-79
2023/10/26 08:11:22;;;;;;;4.47;1.65;;;;;;;;;;4968691;28;92934;-80
2023/10/26 08:13:50;;;;;;;4.65;1.52;;;;;;;;;;4968552;28;93387;-79
2023/10/26 08:16:18;;;;;;;4.68;1.52;;;;;;;;;;4968334;28;91716;-79
2023/10/26 08:19:05;;;;;;;5.43;1.63;;;;;;;;;;4968846;28;94048;-79
2023/10/26 08:21:31;;;;;;;4.10;1.58;;;;;;;;;;4971030;28;92516;-79
2023/10/26 08:23:58;;;;;;;5.88;1.52;;;;;;;;;;4965558;28;95016;-79
2023/10/26 08:26:24;;;;;;;4.75;1.60;;;;;;;;;;4967402;28;93116;-80
2023/10/26 08:28:51;;;;;;;4.57;1.63;;;;;;;;;;4966142;28;92535;-79
2023/10/26 08:31:36;;;;;;;5.43;1.50;;;;;;;;;;4966551;28;94738;-80
2023/10/26 08:34:02;;;;;;;3.80;1.58;;;;;;;;;;4966594;28;93994;-80
2023/10/26 08:36:29;;;;;;;4.45;1.52;;;;;;;;;;4971498;28;92641;-79
2023/10/26 08:38:55;;;;;;;4.18;1.45;;;;;;;;;;4968907;28;93318;-79
2023/10/26 08:41:22;;;;;;;5.68;1.58;;;;;;;;;;4967354;28;92345;-79
2023/10/26 08:43:49;;;;;;;5.15;1.80;;;;;;;;;;4979608;28;92883;-80
2023/10/26 08:46:17;;;;;;;4.85;1.52;;;;;;;;;;4966457;28;94631;-80
2023/10/26 08:48:46;;;;;;;4.15;1.40;;;;;;;;;;4966189;28;97499;-80
2023/10/26 08:51:13;;;;;;;3.05;1.50;;;;;;;;;;4962105;28;94024;-79
2023/10/26 08:53:39;;;;;;;4.22;1.60;;;;;;;;;;4975380;28;93724;-79
2023/10/26 08:56:08;;;;;;;3.92;1.33;;;;;;;;;;4967810;28;94357;-78
2023/10/26 08:58:34;;;;;;;4.40;1.50;;;;;;;;;;4966117;28;93842;-79
2023/10/26 09:01:04;;;;;;;4.22;1.50;;;;;;;;;;4967268;28;92937;-79
2023/10/26 09:03:32;;;;;;;4.55;1.92;;;;;;;;;;4962425;28;92495;-79
2023/10/26 09:05:59;;;;;;;4.13;1.40;;;;;;;;;;4968512;28;93801;-80
2023/10/26 09:08:30;;;;;;;2.97;1.50;;;;;;;;;;4968117;28;92496;-79
2023/10/26 09:10:57;;;;;;;4.25;1.70;;;;;;;;;;4971526;28;95558;-79
2023/10/26 09:13:24;;;;;;;5.07;1.65;;;;;;;;;;4965360;28;98058;-79
2023/10/26 09:15:51;;;;;;;;;;;;;;;;;;4972209;28;92634;-79
2023/10/26 09:18:17;;;;;;;3.70;1.35;;;;;;;;;;4971302;28;110886;-80
2023/10/26 09:21:02;;;;;;;4.75;1.50;;;;;;;;;;4972037;28;93592;-80
2023/10/26 09:23:29;;;;;;;3.58;1.60;;;;;;;;;;4960567;28;92592;-79
2023/10/26 09:25:56;;;;;;;;;;;;;;;;;;4970487;28;95464;-80
2023/10/26 09:28:23;;;;;;;4.10;1.50;;;;;;;;;;4973315;28;94089;-80
2023/10/26 09:30:50;;;;;;;2.70;1.25;;;;;;;;;;4964327;28;92838;-79
2023/10/26 09:33:23;;;;;;;4.93;1.70;;;;;;;;;;4967722;28;93207;-79
2023/10/26 09:35:50;;;;;;;4.70;1.38;;;;;;;;;;4960321;28;93686;-79
2023/10/26 09:38:17;;;;;;;4.03;1.60;;;;;;;;;;4968854;28;94881;-79
2023/10/26 09:40:44;;;;;;;3.40;1.50;;;;;;;;;;4971399;28;94613;-79
2023/10/26 09:43:10;;;;;;;3.65;1.50;;;;;;;;;;4972327;28;99940;-79
2023/10/26 09:45:37;;;;;;;4.05;1.63;;;;;;;;;;4973417;28;92698;-79
2023/10/26 09:48:05;;;;;;;4.28;1.60;;;;;;;;;;4970902;28;93448;-79
2023/10/26 09:50:38;;;;;;;4.78;1.80;;;;;;;;;;4973753;28;92524;-80
2023/10/26 09:53:06;;;;;;;4.20;1.60;;;;;;;;;;4968775;28;94032;-79
2023/10/26 09:55:32;;;;;;;4.85;1.52;;;;;;;;;;4986601;28;92106;-81
2023/10/26 09:58:01;;;;;;;4.57;1.50;;;;;;;;;;4971653;28;93123;-80
2023/10/26 10:00:33;;;;;;;4.05;1.73;;;;;;;;;;4969786;28;93455;-80
2023/10/26 10:03:13;;;;;;;4.43;1.92;;;;;;;;;;4969329;28;95403;-81
2023/10/26 10:05:44;;;;;;;5.07;2.03;;;;;;;;;;4971100;28;95127;-81
2023/10/26 10:08:11;;;;;;;6.07;1.80;;;;;;;;;;4970849;28;93179;-80
2023/10/26 10:10:57;;;;;;;5.00;1.70;;;;;;;;;;4973489;28;92879;-81
2023/10/26 10:13:36;;;;;;;3.95;1.63;;;;;;;;;;4961662;28;93532;-81
2023/10/26 10:16:03;;;;;;;3.28;1.60;;;;;;;;;;4971549;28;92468;-79
2023/10/26 10:18:30;;;;;;;4.72;1.70;;;;;;;;;;4968622;28;93418;-79
2023/10/26 10:20:56;;;;;;;5.07;1.95;;;;;;;;;;4971475;28;92518;-79
2023/10/26 10:23:29;;;;;;;4.88;1.75;;;;;;;;;;4970356;28;92516;-79
2023/10/26 10:25:58;;;;;;;3.88;1.60;;;;;;;;;;4969416;28;93173;-79
2023/10/26 10:28:49;;;;;;;4.60;1.75;;;;;;;;;;4953165;28;102564;-79
2023/10/26 10:31:21;;;;;;;3.92;1.70;;;;;;;;;;4965785;28;92406;-79
2023/10/26 10:34:00;;;;;;;4.03;1.73;;;;;;;;;;4973430;28;93815;-79
2023/10/26 10:36:26;;;;;;;4.50;1.92;;;;;;;;;;4970116;28;92574;-79
2023/10/26 10:39:13;;;;;;;5.63;1.90;;;;;;;;;;4970473;28;92980;-79
2023/10/26 10:41:40;;;;;;;4.95;1.80;;;;;;;;;;4965853;28;93194;-79
2023/10/26 10:44:07;;;;;;;4.80;1.73;;;;;;;;;;4958903;28;92469;-79
2023/10/26 10:46:33;;;;;;;4.07;1.63;;;;;;;;;;4969106;28;93405;-80
2023/10/26 10:49:08;;;;;;;3.53;1.60;;;;;;;;;;4969343;28;93049;-80
2023/10/26 10:51:37;;;;;;;4.22;1.75;;;;;;;;;;4970024;28;92415;-79
2023/10/26 10:54:05;;;;;;;3.80;1.70;;;;;;;;;;4968115;28;94917;-81
2023/10/26 10:56:51;;;;;;;5.15;1.98;;;;;;;;;;4971070;28;97991;-81
2023/10/26 10:59:22;;;;;;;3.03;1.42;;;;;;;;;;4969849;28;92744;-80
2023/10/26 11:01:50;;;;;;;3.25;1.50;;;;;;;;;;4969004;28;93240;-80
2023/10/26 11:04:20;;;;;;;4.35;1.52;;;;;;;;;;4967866;28;92968;-79
2023/10/26 11:06:49;;;;;;;3.25;1.60;;;;;;;;;;4972309;28;92822;-79
2023/10/26 11:09:26;;;;;;;5.03;1.75;;;;;;;;;;4981287;28;94432;-80
2023/10/26 11:11:53;;;;;;;3.83;1.70;;;;;;;;;;4978581;28;92063;-80
2023/10/26 11:14:20;;;;;;;4.95;1.90;;;;;;;;;;4969526;28;92389;-80
2023/10/26 11:16:48;;;;;;;4.18;1.90;;;;;;;;;;4969879;28;94738;-80
2023/10/26 11:19:14;;;;;;;;;;;;;;;;;;4971340;28;94814;-80
2023/10/26 11:21:41;;;;;;;3.85;1.70;;;;;;;;;;4972689;28;96233;-80
2023/10/26 11:24:08;;;;;;;4.07;1.73;;;;;;;;;;4973729;28;92547;-79
2023/10/26 11:26:34;;;;;;;4.43;2.10;;;;;;;;;;4973448;28;92637;-80
2023/10/26 11:29:03;;;;;;;5.20;2.25;;;;;;;;;;4968778;28;93270;-79
2023/10/26 11:31:33;;;;;;;6.22;2.15;;;;;;;;;;4970737;28;92564;-79
2023/10/26 11:34:03;;;;;;;4.40;1.63;;;;;;;;;;4974525;28;92884;-79
2023/10/26 11:36:30;;;;;;;4.72;1.90;;;;;;;;;;4972916;28;92198;-80
2023/10/26 11:38:57;;;;;;;4.53;1.77;;;;;;;;;;4972125;28;92988;-79
2023/10/26 11:41:24;;;;;;;;;;;;;;;;;;4975602;28;92832;-79
2023/10/26 11:43:50;;;;;;;4.38;2.00;;;;;;;;;;4969398;28;94899;-80
2023/10/26 11:46:30;;;;;;;4.28;1.92;;;;;;;;;;4969339;28;94912;-80
2023/10/26 11:48:56;;;;;;;3.78;1.88;;;;;;;;;;4973128;28;92958;-79
2023/10/26 11:51:23;;;;;;;5.10;2.13;;;;;;;;;;4972163;28;92817;-79
2023/10/26 11:53:49;;;;;;;5.03;2.10;;;;;;;;;;4963607;28;92967;-80
2023/10/26 11:56:16;;;;;;;5.38;2.28;;;;;;;;;;4968951;28;94571;-80
2023/10/26 11:58:42;;;;;;;4.72;2.28;;;;;;;;;;4969292;28;93336;-80
2023/10/26 12:01:09;;;;;;;4.70;2.03;;;;;;;;;;4969312;28;93669;-79
2023/10/26 12:03:41;;;;;;;4.25;1.85;;;;;;;;;;4971761;28;93126;-80
2023/10/26 12:06:10;;;;;;;4.45;1.83;;;;;;;;;;4966519;28;96325;-80
2023/10/26 12:08:37;;;;;;;4.13;1.80;;;;;;;;;;4967253;28;95584;-80
2023/10/26 12:11:04;;;;;;;4.25;2.05;;;;;;;;;;4974013;28;92478;-80
2023/10/26 12:13:34;;;;;;;4.82;2.20;;;;;;;;;;4967363;28;95988;-79
2023/10/26 12:16:01;;;;;;;4.85;2.00;;;;;;;;;;4969357;28;93153;-80
2023/10/26 12:18:28;;;;;;;6.10;2.70;;;;;;;;;;4968084;28;92571;-80
2023/10/26 12:20:55;;;;;;;4.80;2.10;;;;;;;;;;4968849;28;92769;-80
2023/10/26 12:23:21;;;;;;;5.03;2.28;;;;;;;;;;4968395;28;94070;-80
2023/10/26 12:25:48;;;;;;;4.60;2.00;;;;;;;;;;4971936;28;91687;-79
2023/10/26 12:28:18;;;;;;;4.55;2.13;;;;;;;;;;4966554;28;95120;-80
2023/10/26 12:30:51;;;;;;;4.22;1.90;;;;;;;;;;4967102;28;92488;-80
2023/10/26 12:33:18;;;;;;;6.22;2.30;;;;;;;;;;4966568;28;94840;-79
2023/10/26 12:35:46;;;;;;;4.10;1.92;;;;;;;;;;4968043;28;92963;-80
2023/10/26 12:38:13;;;;;;;5.55;2.22;;;;;;;;;;4967330;28;92737;-80
2023/10/26 12:40:39;;;;;;;4.93;2.60;;;;;;;;;;4967966;28;92793;-80
2023/10/26 12:43:05;;;;;;;4.18;2.10;;;;;;;;;;4966708;28;93446;-80
2023/10/26 12:45:32;;;;;;;5.43;2.25;;;;;;;;;;4971454;28;92642;-79
2023/10/26 12:47:59;;;;;;;5.60;2.40;;;;;;;;;;4964869;28;95947;-79
2023/10/26 12:50:26;;;;;;;4.45;2.22;;;;;;;;;;4950050;28;91886;-80
2023/10/26 12:52:52;;;;;;;4.63;2.00;;;;;;;;;;4968228;28;92601;-80
2023/10/26 12:55:21;;;;;;;5.00;2.10;;;;;;;;;;4966211;28;96105;-80
2023/10/26 12:57:48;;;;;;;4.20;2.00;;;;;;;;;;4964720;28;95033;-80
2023/10/26 13:00:14;;;;;;;5.50;2.35;;;;;;;;;;4966799;28;96381;-80
2023/10/26 13:02:41;;;;;;;4.32;2.10;;;;;;;;;;4964951;28;94641;-80
2023/10/26 13:05:08;;;;;;;4.55;2.08;;;;;;;;;;4967682;28;92445;-80
2023/10/26 13:07:34;;;;;;;4.07;2.10;;;;;;;;;;4970214;28;94301;-80
2023/10/26 13:10:01;;;;;;;4.47;2.08;;;;;;;;;;4967774;28;92522;-80
2023/10/26 13:12:28;;;;;;;4.85;2.28;;;;;;;;;;4954574;28;96382;-80
2023/10/26 13:14:55;;;;;;;4.53;2.10;;;;;;;;;;4967988;28;92578;-80
2023/10/26 13:17:31;;;;;;;4.20;2.10;;;;;;;;;;4966127;28;92585;-80
2023/10/26 13:19:57;;;;;;;4.45;2.28;;;;;;;;;;4967995;28;93240;-80
2023/10/26 13:22:24;;;;;;;3.95;1.95;;;;;;;;;;4963271;28;96785;-79
2023/10/26 13:24:51;;;;;;;5.13;2.22;;;;;;;;;;4973951;28;93038;-79
2023/10/26 13:27:17;;;;;;;5.53;2.30;;;;;;;;;;4968190;28;94403;-80
2023/10/26 13:29:44;;;;;;;4.85;2.20;;;;;;;;;;4967995;28;93252;-80
2023/10/26 13:32:11;;;;;;;4.28;2.10;;;;;;;;;;4967749;28;93949;-79
2023/10/26 13:34:38;;;;;;;4.90;2.30;;;;;;;;;;4967721;28;93149;-80
2023/10/26 13:37:05;;;;;;;4.10;2.00;;;;;;;;;;4967295;28;93350;-81
2023/10/26 13:39:31;;;;;;;3.85;2.10;;;;;;;;;;4974054;28;92689;-80
2023/10/26 13:41:58;;;;;;;5.32;2.20;;;;;;;;;;4969354;28;93942;-80
2023/10/26 13:44:25;;;;;;;3.78;2.08;;;;;;;;;;4968682;28;93177;-80
2023/10/26 13:46:51;;;;;;;4.22;2.10;;;;;;;;;;4967307;28;95163;-80
2023/10/26 13:49:18;;;;;;;4.40;2.03;;;;;;;;;;4969234;28;93863;-80
2023/10/26 13:51:44;;;;;;;3.63;1.98;;;;;;;;;;4974238;28;92413;-80
2023/10/26 13:54:11;;;;;;;4.35;2.13;;;;;;;;;;4966260;28;93076;-80
2023/10/26 13:56:37;;;;;;;5.13;2.33;;;;;;;;;;4957899;28;92438;-81
2023/10/26 13:59:04;;;;;;;5.10;2.40;;;;;;;;;;4968924;28;93860;-81
2023/10/26 14:01:31;;;;;;;6.32;3.03;;;;;;;;;;4984517;28;93766;-80
2023/10/26 14:03:58;;;;;;;4.97;2.42;;;;;;;;;;4969727;28;92001;-80
2023/10/26 14:06:25;;;;;;;4.75;2.22;;;;;;;;;;4970002;28;92617;-80
2023/10/26 14:08:52;;;;;;;6.18;2.80;;;;;;;;;;4970039;28;93036;-80
2023/10/26 14:11:18;;;;;;;6.05;3.10;;;;;;;;;;4974823;28;95191;-80
2023/10/26 14:13:45;;;;;;;6.72;3.15;;;;;;;;;;4972965;28;94257;-80
2023/10/26 14:16:12;;;;;;;7.07;3.00;;;;;;;;;;4970177;28;92645;-80
2023/10/26 14:18:38;;;;;;;8.05;3.17;;;;;;;;;;4960708;28;95630;-80
2023/10/26 14:21:05;;;;;;;7.53;3.03;;;;;;;;;;4965610;28;93542;-79
2023/10/26 14:23:32;;;;;;;6.50;2.90;;;;;;;;;;4970395;28;92462;-79
2023/10/26 14:26:00;;;;;;;6.95;3.03;;;;;;;;;;4970218;28;93383;-80
2023/10/26 14:28:26;;;;;;;5.80;2.50;;;;;;;;;;4969666;28;92559;-80
2023/10/26 14:30:53;;;;;;;5.35;2.42;;;;;;;;;;4965604;28;92487;-79
2023/10/26 14:33:20;;;;;;;6.45;2.80;;;;;;;;;;4972320;28;92883;-79
2023/10/26 14:35:52;;;;;;;5.30;2.20;;;;;;;;;;4968103;28;94857;-80
2023/10/26 14:38:19;;;;;;;4.45;2.30;;;;;;;;;;4968639;28;95173;-80
2023/10/26 14:40:47;;;;;;;4.88;2.40;;;;;;;;;;4969441;28;93075;-80
2023/10/26 14:43:14;;;;;;;5.00;2.10;;;;;;;;;;4969948;28;92724;-80
2023/10/26 14:45:40;;;;;;;4.63;2.10;;;;;;;;;;4968595;28;92916;-80